createdAt,value
2018-08-24T00:00:37.044Z,4.57
2018-08-24T00:05:20.712Z,4.87
2018-08-24T00:10:04.414Z,4.83
2018-08-24T00:14:48.814Z,5.00
2018-08-24T00:19:32.549Z,4.87
2018-08-24T00:24:16.562Z,4.53
2018-08-24T00:29:00.246Z,5.10
2018-08-24T00:33:48.032Z,4.50
2018-08-24T00:38:31.858Z,4.50
2018-08-24T00:43:15.556Z,4.43
2018-08-24T00:47:59.248Z,4.77
2018-08-24T00:52:43.186Z,4.53
2018-08-24T00:57:26.823Z,4.30
2018-08-24T01:02:10.559Z,4.40
2018-08-24T01:06:54.203Z,4.30
2018-08-24T01:11:43.070Z,4.73
2018-08-24T01:16:32.002Z,5.13
2018-08-24T01:21:15.606Z,4.63
2018-08-24T01:25:59.584Z,4.37
2018-08-24T01:30:43.290Z,4.30
2018-08-24T01:35:26.976Z,5.00
2018-08-24T01:40:10.632Z,5.37
2018-08-24T01:44:54.316Z,4.87
2018-08-24T01:49:38.085Z,4.70
2018-08-24T01:54:21.780Z,5.10
2018-08-24T01:59:05.872Z,4.93
2018-08-24T02:03:49.966Z,4.67
2018-08-24T02:08:34.097Z,4.70
2018-08-24T02:13:23.100Z,4.90
2018-08-24T02:18:12.038Z,4.90
2018-08-24T02:22:59.193Z,4.27
2018-08-24T02:27:42.908Z,4.33
2018-08-24T02:32:27.078Z,4.83
2018-08-24T02:37:10.725Z,4.30
2018-08-24T02:41:54.425Z,5.30
2018-08-24T02:46:38.199Z,4.63
2018-08-24T02:51:21.908Z,5.03
2018-08-24T02:56:05.605Z,5.07
2018-08-24T03:00:50.266Z,4.57
2018-08-24T03:05:34.189Z,4.80
2018-08-24T03:10:17.878Z,5.23
2018-08-24T03:15:01.610Z,5.33
2018-08-24T03:19:45.579Z,4.67
2018-08-24T03:24:29.252Z,5.17
2018-08-24T03:29:13.042Z,4.93
2018-08-24T03:33:56.635Z,5.83
2018-08-24T03:38:40.342Z,5.43
2018-08-24T03:43:24.358Z,5.03
2018-08-24T03:48:08.214Z,5.00
2018-08-24T03:52:52.107Z,5.40
2018-08-24T03:57:35.800Z,5.70
2018-08-24T04:02:19.460Z,5.30
2018-08-24T04:07:03.150Z,5.60
2018-08-24T04:11:47.036Z,5.17
2018-08-24T04:16:35.002Z,5.83
2018-08-24T04:21:18.688Z,5.27
2018-08-24T04:26:02.431Z,5.50
2018-08-24T04:30:46.054Z,5.30
2018-08-24T04:35:29.690Z,5.43
2018-08-24T04:40:13.570Z,5.33
2018-08-24T04:44:57.303Z,6.13
2018-08-24T04:49:40.918Z,4.77
2018-08-24T04:54:24.674Z,5.27
2018-08-24T04:59:08.361Z,5.43
2018-08-24T05:03:52.119Z,5.30
2018-08-24T05:08:35.960Z,5.27
2018-08-24T05:13:19.653Z,5.57
2018-08-24T05:18:03.305Z,6.37
2018-08-24T05:22:47.292Z,5.83
2018-08-24T05:27:31.000Z,5.47
2018-08-24T05:32:14.668Z,6.20
2018-08-24T05:36:58.340Z,6.00
2018-08-24T05:41:42.234Z,6.17
2018-08-24T05:46:26.168Z,6.93
2018-08-24T05:51:13.634Z,7.20
2018-08-24T05:55:57.816Z,7.43
2018-08-24T06:00:45.428Z,7.60
2018-08-24T06:05:34.671Z,8.33
2018-08-24T06:10:19.716Z,9.03
2018-08-24T06:15:06.060Z,8.63
2018-08-24T06:19:50.380Z,10.43
2018-08-24T06:24:34.547Z,9.93
2018-08-24T06:29:21.847Z,10.27
2018-08-24T06:34:06.032Z,10.13
2018-08-24T06:38:50.126Z,11.43
2018-08-24T06:43:35.204Z,12.43
2018-08-24T06:48:20.135Z,12.80
2018-08-24T06:53:06.943Z,13.00
2018-08-24T06:57:53.015Z,12.60
2018-08-24T07:02:39.256Z,10.13
2018-08-24T07:07:25.607Z,10.93
2018-08-24T07:12:11.966Z,10.73
2018-08-24T07:17:00.989Z,11.37
2018-08-24T07:21:45.075Z,12.00
2018-08-24T07:26:28.931Z,13.43
2018-08-24T07:31:12.950Z,13.70
2018-08-24T07:35:57.813Z,13.90
2018-08-24T07:40:41.647Z,14.80
2018-08-24T07:45:25.548Z,13.63
2018-08-24T07:50:09.248Z,16.77
2018-08-24T07:54:52.956Z,17.27
2018-08-24T07:59:36.638Z,18.53
2018-08-24T08:04:20.430Z,18.53
2018-08-24T08:09:04.976Z,20.00
2018-08-24T08:13:48.685Z,19.53
2018-08-24T08:18:32.434Z,21.43
2018-08-24T08:23:16.416Z,21.00
2018-08-24T08:28:00.167Z,18.30
2018-08-24T08:32:44.025Z,20.50
2018-08-24T08:37:28.156Z,20.27
2018-08-24T08:42:12.560Z,19.10
2018-08-24T08:46:56.504Z,19.23
2018-08-24T08:51:40.379Z,19.50
2018-08-24T08:56:25.020Z,20.87
2018-08-24T09:01:08.875Z,19.93
2018-08-24T09:05:52.833Z,18.07
2018-08-24T09:10:39.891Z,16.53
2018-08-24T09:15:24.661Z,21.33
2018-08-24T09:20:14.813Z,18.23
2018-08-24T09:25:05.620Z,19.53
2018-08-24T09:29:50.550Z,17.47
2018-08-24T09:34:36.413Z,16.07
2018-08-24T09:39:24.897Z,16.47
2018-08-24T09:44:10.837Z,16.37
2018-08-24T09:49:01.716Z,17.20
2018-08-24T09:53:51.023Z,18.03
2018-08-24T09:58:35.315Z,20.83
2018-08-24T10:03:25.219Z,18.73
2018-08-24T10:08:14.397Z,20.27
2018-08-24T10:12:58.411Z,20.90
2018-08-24T10:17:45.755Z,19.67
2018-08-24T10:22:29.532Z,18.30
2018-08-24T10:27:13.188Z,15.23
2018-08-24T10:31:56.864Z,15.75
2018-08-24T10:36:40.627Z,14.13
2018-08-24T10:41:24.395Z,13.38
2018-08-24T10:46:08.136Z,15.43
2018-08-24T10:50:51.837Z,14.63
2018-08-24T10:55:35.670Z,13.13
2018-08-24T11:00:19.369Z,9.23
2018-08-24T11:05:03.124Z,8.15
2018-08-24T11:09:46.917Z,8.50
2018-08-24T11:14:30.584Z,7.47
2018-08-24T11:19:14.291Z,7.22
2018-08-24T11:23:58.200Z,5.97
2018-08-24T11:28:41.836Z,5.20
2018-08-24T11:33:25.541Z,5.07
2018-08-24T11:38:09.199Z,5.43
2018-08-24T11:42:52.887Z,6.30
2018-08-24T11:47:36.563Z,5.70
2018-08-24T11:52:21.564Z,5.70
2018-08-24T11:57:05.440Z,5.33
2018-08-24T12:01:49.095Z,6.33
2018-08-24T12:06:32.787Z,6.93
2018-08-24T12:11:16.721Z,3.80
2018-08-24T12:16:00.534Z,3.43
2018-08-24T12:20:44.282Z,4.00
2018-08-24T12:25:27.961Z,3.53
2018-08-24T12:30:11.645Z,3.40
2018-08-24T12:34:55.363Z,3.97
2018-08-24T12:39:39.676Z,3.60
2018-08-24T12:44:23.620Z,4.37
2018-08-24T12:49:07.628Z,4.37
2018-08-24T12:53:51.287Z,4.30
2018-08-24T12:58:35.009Z,4.37
2018-08-24T13:03:18.720Z,4.27
2018-08-24T13:08:02.517Z,3.83
2018-08-24T13:12:48.152Z,4.07
2018-08-24T13:17:31.757Z,4.07
2018-08-24T13:22:15.472Z,4.20
2018-08-24T13:26:59.114Z,3.90
2018-08-24T13:31:42.844Z,3.10
2018-08-24T13:36:26.559Z,3.93
2018-08-24T13:41:10.362Z,4.00
2018-08-24T13:45:54.157Z,3.03
2018-08-24T13:50:37.909Z,2.87
2018-08-24T13:55:21.640Z,2.70
2018-08-24T14:00:05.672Z,2.67
2018-08-24T14:04:49.343Z,2.50
2018-08-24T14:09:33.302Z,3.10
2018-08-24T14:14:17.024Z,2.60
2018-08-24T14:19:00.738Z,2.57
2018-08-24T14:23:44.426Z,2.70
2018-08-24T14:28:28.144Z,2.40
2018-08-24T14:33:11.838Z,2.60
2018-08-24T14:37:55.682Z,3.10
2018-08-24T14:42:39.399Z,3.27
2018-08-24T14:47:23.085Z,3.63
2018-08-24T14:52:06.992Z,3.67
2018-08-24T14:56:50.777Z,3.57
2018-08-24T15:01:34.389Z,4.10
2018-08-24T15:06:18.153Z,4.73
2018-08-24T15:11:01.797Z,5.47
2018-08-24T15:15:45.637Z,4.53
2018-08-24T15:20:29.457Z,5.07
2018-08-24T15:25:13.293Z,4.60
2018-08-24T15:29:57.096Z,4.63
2018-08-24T15:34:40.913Z,4.87
2018-08-24T15:39:24.814Z,4.80
2018-08-24T15:44:08.947Z,5.27
2018-08-24T15:48:52.649Z,4.57
2018-08-24T15:53:36.360Z,4.63
2018-08-24T15:58:20.128Z,4.13
2018-08-24T16:03:03.833Z,4.60
2018-08-24T16:07:47.756Z,4.50
2018-08-24T16:12:31.744Z,4.40
2018-08-24T16:17:15.730Z,4.63
2018-08-24T16:21:59.645Z,5.60
2018-08-24T16:26:43.412Z,4.40
2018-08-24T16:31:27.234Z,4.77
2018-08-24T16:36:10.945Z,4.93
2018-08-24T16:40:54.695Z,5.03
2018-08-24T16:45:38.437Z,5.63
2018-08-24T16:50:22.261Z,5.60
2018-08-24T16:55:06.211Z,4.80
2018-08-24T16:59:50.129Z,5.60
2018-08-24T17:04:33.835Z,5.27
2018-08-24T17:09:17.580Z,5.37
2018-08-24T17:14:01.401Z,4.77
2018-08-24T17:18:45.129Z,4.70
2018-08-24T17:23:28.933Z,4.33
2018-08-24T17:28:12.708Z,5.50
2018-08-24T17:32:56.598Z,5.00
2018-08-24T17:37:40.393Z,4.60
2018-08-24T17:42:24.219Z,4.83
2018-08-24T17:47:08.223Z,4.33
2018-08-24T17:51:52.626Z,4.70
2018-08-24T17:56:37.236Z,4.70
2018-08-24T18:01:21.422Z,4.47
2018-08-24T18:06:05.902Z,4.33
2018-08-24T18:10:49.997Z,4.17
2018-08-24T18:15:47.813Z,4.57
2018-08-24T18:20:31.839Z,4.70
2018-08-24T18:25:15.834Z,4.80
2018-08-24T18:30:00.052Z,4.20
2018-08-24T18:34:44.098Z,3.60
2018-08-24T18:39:30.762Z,3.40
2018-08-24T18:50:13.738Z,3.50
2018-08-24T18:54:58.159Z,3.33
2018-08-24T18:59:41.858Z,3.83
2018-08-24T19:04:26.409Z,3.60
2018-08-24T19:09:11.013Z,3.70
2018-08-24T19:13:55.165Z,3.80
2018-08-24T19:18:44.348Z,4.33
2018-08-24T19:23:28.037Z,4.20
2018-08-24T19:28:17.100Z,4.33
2018-08-24T19:33:00.782Z,4.40
2018-08-24T19:37:44.602Z,4.33
2018-08-24T19:42:28.320Z,4.47
2018-08-24T19:47:17.245Z,4.73
2018-08-24T19:52:01.097Z,4.67
2018-08-24T19:56:44.935Z,5.03
2018-08-24T20:01:28.659Z,5.80
2018-08-24T20:06:17.656Z,5.63
2018-08-24T20:11:01.476Z,5.07
2018-08-24T20:15:50.572Z,5.63
2018-08-24T20:20:34.403Z,5.67
2018-08-24T20:25:18.350Z,5.90
2018-08-24T20:30:02.071Z,6.03
2018-08-24T20:34:46.795Z,6.00
2018-08-24T20:39:30.431Z,5.87
2018-08-24T20:44:14.257Z,6.27
2018-08-24T20:48:58.091Z,6.17
2018-08-24T20:53:41.813Z,6.70
2018-08-24T20:58:25.738Z,6.37
2018-08-24T21:03:09.517Z,6.43
2018-08-24T21:07:53.167Z,6.60
2018-08-24T21:12:37.060Z,7.07
2018-08-24T21:17:22.201Z,6.80
2018-08-24T21:22:06.476Z,6.40
2018-08-24T21:26:50.313Z,7.70
2018-08-24T21:31:33.995Z,7.07
2018-08-24T21:36:17.799Z,6.60
2018-08-24T21:41:01.477Z,6.87
2018-08-24T21:45:45.222Z,7.13
2018-08-24T21:50:29.030Z,7.10
2018-08-24T21:55:12.849Z,7.20
2018-08-24T21:59:56.581Z,7.03
2018-08-24T22:04:40.426Z,7.40
2018-08-24T22:09:24.163Z,7.20
2018-08-24T22:14:08.005Z,7.97
2018-08-24T22:18:51.639Z,7.43
2018-08-24T22:23:35.393Z,8.30
2018-08-24T22:28:19.331Z,8.30
2018-08-24T22:33:03.117Z,8.63
2018-08-24T22:37:46.993Z,8.00
2018-08-24T22:42:30.783Z,8.40
2018-08-24T22:47:14.489Z,8.60
2018-08-24T22:51:58.307Z,8.43
2018-08-24T22:56:42.143Z,8.07
2018-08-24T23:01:25.901Z,8.43
2018-08-24T23:06:09.696Z,8.93
2018-08-24T23:10:53.381Z,7.87
2018-08-24T23:15:37.019Z,7.83
2018-08-24T23:20:20.623Z,8.03
2018-08-24T23:25:04.340Z,8.20
2018-08-24T23:29:48.021Z,7.90
2018-08-24T23:34:31.683Z,7.83
2018-08-24T23:39:15.383Z,7.57
2018-08-24T23:43:59.146Z,7.50
2018-08-24T23:48:42.868Z,7.30
2018-08-24T23:53:26.727Z,7.27
2018-08-24T23:58:10.415Z,8.03
